createdAt,value
2018-05-25T00:02:01.218Z,97750.26
2018-05-25T00:04:32.258Z,97750.34
2018-05-25T00:07:03.288Z,97748.67
2018-05-25T00:09:34.332Z,97753.30
2018-05-25T00:12:05.331Z,97750.16
2018-05-25T00:14:36.335Z,97751.03
2018-05-25T00:17:07.313Z,97755.03
2018-05-25T00:19:38.350Z,97754.64
2018-05-25T00:22:09.363Z,97760.37
2018-05-25T00:24:40.373Z,97761.84
2018-05-25T00:27:11.386Z,97758.05
2018-05-25T00:29:42.366Z,97759.27
2018-05-25T00:32:13.377Z,97761.51
2018-05-25T00:34:44.408Z,97760.17
2018-05-25T00:37:15.387Z,97753.25
2018-05-25T00:39:46.425Z,97746.81
2018-05-25T00:42:17.420Z,97747.70
2018-05-25T00:44:48.395Z,97748.33
2018-05-25T00:47:19.404Z,97745.56
2018-05-25T00:49:50.448Z,97747.11
2018-05-25T00:52:21.436Z,97748.55
2018-05-25T00:55:04.729Z,97744.20
2018-05-25T00:57:35.740Z,97739.59
2018-05-25T01:00:06.868Z,97743.28
2018-05-25T01:02:37.907Z,97743.81
2018-05-25T01:05:08.943Z,97749.62
2018-05-25T01:07:39.949Z,97754.64
2018-05-25T01:10:10.956Z,97752.77
2018-05-25T01:12:41.982Z,97760.06
2018-05-25T01:15:13.042Z,97756.18
2018-05-25T01:17:44.065Z,97752.51
2018-05-25T01:20:15.076Z,97759.14
2018-05-25T01:22:46.079Z,97762.60
2018-05-25T01:25:17.064Z,97773.00
2018-05-25T01:27:48.092Z,97771.13
2018-05-25T01:30:19.109Z,97763.12
2018-05-25T01:32:50.116Z,97768.31
2018-05-25T01:35:21.118Z,97768.00
2018-05-25T01:37:52.113Z,97758.92
2018-05-25T01:40:23.120Z,97764.23
2018-05-25T01:42:54.148Z,97761.59
2018-05-25T01:45:25.154Z,97760.27
2018-05-25T01:47:56.189Z,97758.13
2018-05-25T01:50:27.258Z,97757.88
2018-05-25T01:52:58.260Z,97765.38
2018-05-25T01:55:29.324Z,97758.33
2018-05-25T01:58:00.326Z,97760.45
2018-05-25T02:00:31.363Z,97761.53
2018-05-25T02:03:02.417Z,97769.41
2018-05-25T02:05:33.449Z,97760.50
2018-05-25T02:08:04.489Z,97764.57
2018-05-25T02:10:35.498Z,97768.76
2018-05-25T02:13:06.520Z,97765.20
2018-05-25T02:15:37.522Z,97763.38
2018-05-25T02:18:08.546Z,97763.19
2018-05-25T02:20:39.595Z,97766.19
2018-05-25T02:23:10.706Z,97763.08
2018-05-25T02:25:41.737Z,97759.28
2018-05-25T02:28:12.782Z,97755.19
2018-05-25T02:30:43.787Z,97755.93
2018-05-25T02:33:14.824Z,97753.72
2018-05-25T02:35:45.784Z,97750.94
2018-05-25T02:38:16.812Z,97751.00
2018-05-25T02:40:47.815Z,97750.20
2018-05-25T02:43:18.866Z,97757.13
2018-05-25T02:45:49.853Z,97760.27
2018-05-25T02:48:20.888Z,97759.59
2018-05-25T02:50:51.883Z,97759.55
2018-05-25T02:53:22.906Z,97756.95
2018-05-25T02:55:53.924Z,97754.41
2018-05-25T02:58:24.943Z,97751.39
2018-05-25T03:00:55.948Z,97747.33
2018-05-25T03:03:26.960Z,97743.92
2018-05-25T03:05:57.970Z,97747.84
2018-05-25T03:08:29.002Z,97746.82
2018-05-25T03:11:00.025Z,97755.34
2018-05-25T03:13:31.012Z,97752.16
2018-05-25T03:16:02.009Z,97746.70
2018-05-25T03:18:32.990Z,97751.36
2018-05-25T03:21:04.034Z,97747.27
2018-05-25T03:23:35.011Z,97755.08
2018-05-25T03:26:06.116Z,97756.00
2018-05-25T03:28:37.024Z,97742.27
2018-05-25T03:31:08.033Z,97752.50
2018-05-25T03:33:39.044Z,97745.36
2018-05-25T03:36:10.057Z,97751.97
2018-05-25T03:38:41.075Z,97750.23
2018-05-25T03:41:12.103Z,97745.91
2018-05-25T03:43:43.121Z,97749.85
2018-05-25T03:46:14.174Z,97757.24
2018-05-25T03:48:45.192Z,97758.02
2018-05-25T03:51:16.239Z,97759.02
2018-05-25T03:53:47.322Z,97750.05
2018-05-25T03:56:18.319Z,97758.02
2018-05-25T04:01:57.512Z,97765.80
2018-05-25T04:04:28.499Z,97764.94
2018-05-25T04:06:59.469Z,97769.60
2018-05-25T04:09:30.487Z,97770.03
2018-05-25T04:12:01.453Z,97764.58
2018-05-25T04:14:32.493Z,97770.75
2018-05-25T04:17:03.497Z,97768.95
2018-05-25T04:19:34.564Z,97771.15
2018-05-25T04:22:05.564Z,97766.88
2018-05-25T04:24:36.583Z,97774.57
2018-05-25T04:27:07.600Z,97772.53
2018-05-25T04:29:38.635Z,97771.46
2018-05-25T04:32:09.614Z,97772.70
2018-05-25T04:34:40.625Z,97772.41
2018-05-25T04:37:11.636Z,97773.88
2018-05-25T04:39:42.651Z,97770.81
2018-05-25T04:42:13.674Z,97776.28
2018-05-25T04:44:44.657Z,97771.02
2018-05-25T04:47:15.646Z,97765.91
2018-05-25T04:49:46.674Z,97765.89
2018-05-25T04:52:17.678Z,97775.79
2018-05-25T04:54:48.665Z,97770.00
2018-05-25T04:57:19.693Z,97773.89
2018-05-25T04:59:50.732Z,97769.98
2018-05-25T05:02:21.713Z,97771.69
2018-05-25T05:04:52.733Z,97778.08
2018-05-25T05:07:23.754Z,97774.73
2018-05-25T05:09:54.772Z,97775.38
2018-05-25T05:12:25.783Z,97774.22
2018-05-25T05:14:56.798Z,97781.53
2018-05-25T05:17:27.830Z,97779.64
2018-05-25T05:19:58.831Z,97780.94
2018-05-25T05:22:29.846Z,97780.20
2018-05-25T05:25:00.820Z,97780.69
2018-05-25T05:27:31.825Z,97779.82
2018-05-25T05:30:02.886Z,97779.31
2018-05-25T05:32:33.944Z,97781.98
2018-05-25T05:35:04.935Z,97776.27
2018-05-25T05:37:35.970Z,97774.59
2018-05-25T05:40:06.912Z,97779.12
2018-05-25T05:42:37.931Z,97774.98
2018-05-25T05:45:08.918Z,97774.75
2018-05-25T05:47:39.912Z,97766.71
2018-05-25T05:50:10.958Z,97763.06
2018-05-25T05:52:41.973Z,97759.59
2018-05-25T05:55:13.028Z,97765.30
2018-05-25T05:57:44.067Z,97768.28
2018-05-25T06:00:15.056Z,97767.45
2018-05-25T06:02:46.104Z,97758.72
2018-05-25T06:05:17.150Z,97759.64
2018-05-25T06:07:48.215Z,97757.41
2018-05-25T06:10:19.208Z,97762.11
2018-05-25T06:12:50.301Z,97758.98
2018-05-25T06:15:21.379Z,97752.63
2018-05-25T06:17:52.371Z,97751.69
2018-05-25T06:20:23.351Z,97755.41
2018-05-25T06:22:54.350Z,97747.37
2018-05-25T06:25:25.399Z,97753.69
2018-05-25T06:27:56.390Z,97743.78
2018-05-25T06:30:27.395Z,97744.97
2018-05-25T06:32:58.421Z,97741.72
2018-05-25T06:35:29.430Z,97737.81
2018-05-25T06:38:00.414Z,97734.34
2018-05-25T06:40:31.423Z,97731.44
2018-05-25T06:43:02.433Z,97731.38
2018-05-25T06:45:33.468Z,97728.02
2018-05-25T06:48:04.489Z,97729.07
2018-05-25T06:50:35.635Z,97723.09
2018-05-25T06:53:06.604Z,97722.94
2018-05-25T06:55:37.623Z,97720.19
2018-05-25T06:58:08.606Z,97725.70
2018-05-25T07:00:39.658Z,97723.55
2018-05-25T07:03:10.669Z,97717.94
2018-05-25T07:05:41.742Z,97715.58
2018-05-25T07:08:12.739Z,97717.67
2018-05-25T07:10:43.806Z,97718.61
2018-05-25T07:13:14.804Z,97717.42
2018-05-25T07:15:45.839Z,97719.73
2018-05-25T07:18:16.880Z,97718.91
2018-05-25T07:20:47.865Z,97715.52
2018-05-25T07:23:18.914Z,97712.10
2018-05-25T07:25:49.890Z,97708.42
2018-05-25T07:28:20.898Z,97698.55
2018-05-25T07:30:51.924Z,97707.48
2018-05-25T07:33:22.976Z,97702.27
2018-05-25T07:35:53.997Z,97695.25
2018-05-25T07:38:25.008Z,97691.35
2018-05-25T07:40:56.016Z,97683.54
2018-05-25T07:43:27.028Z,97685.56
2018-05-25T07:45:57.984Z,97683.59
2018-05-25T07:48:29.050Z,97682.75
2018-05-25T07:51:00.044Z,97678.86
2018-05-25T07:53:31.177Z,97670.56
2018-05-25T07:56:02.197Z,97672.12
2018-05-25T07:58:33.229Z,97667.89
2018-05-25T08:01:04.314Z,97675.78
2018-05-25T08:03:35.296Z,97672.53
2018-05-25T08:06:06.383Z,97669.47
2018-05-25T08:08:37.402Z,97661.72
2018-05-25T08:11:08.396Z,97660.80
2018-05-25T08:13:39.385Z,97658.66
2018-05-25T08:16:10.397Z,97657.24
2018-05-25T08:18:41.438Z,97654.99
2018-05-25T08:21:12.444Z,97648.84
2018-05-25T08:23:43.488Z,97652.95
2018-05-25T08:26:14.478Z,97648.98
2018-05-25T08:28:45.491Z,97647.70
2018-05-25T08:31:16.488Z,97644.68
2018-05-25T08:33:47.549Z,97645.76
2018-05-25T08:36:18.509Z,97645.61
2018-05-25T08:38:49.542Z,97643.86
2018-05-25T08:41:20.562Z,97638.52
2018-05-25T08:43:51.599Z,97631.53
2018-05-25T08:46:22.563Z,97632.30
2018-05-25T08:48:53.612Z,97634.52
2018-05-25T08:51:24.682Z,97640.98
2018-05-25T08:53:55.698Z,97643.94
2018-05-25T08:56:26.682Z,97644.80
2018-05-25T08:58:57.690Z,97648.41
2018-05-25T09:01:28.670Z,97644.13
2018-05-25T09:03:59.689Z,97638.95
2018-05-25T09:06:30.731Z,97637.64
2018-05-25T09:09:01.744Z,97640.97
2018-05-25T09:11:32.804Z,97631.17
2018-05-25T09:14:03.832Z,97631.79
2018-05-25T09:16:34.921Z,97626.75
2018-05-25T09:19:05.912Z,97632.40
2018-05-25T09:21:36.981Z,97624.50
2018-05-25T09:24:08.034Z,97616.57
2018-05-25T09:26:39.078Z,97615.59
2018-05-25T09:29:10.083Z,97622.13
2018-05-25T09:31:41.140Z,97608.02
2018-05-25T09:34:12.155Z,97611.38
2018-05-25T09:36:43.164Z,97618.29
2018-05-25T09:39:14.205Z,97617.92
2018-05-25T09:41:45.212Z,97615.64
2018-05-25T09:44:16.292Z,97619.99
2018-05-25T09:46:47.306Z,97613.92
2018-05-25T09:49:18.345Z,97611.12
2018-05-25T09:51:49.346Z,97611.10
2018-05-25T09:54:20.366Z,97612.58
2018-05-25T09:56:58.516Z,97611.12
2018-05-25T09:59:29.554Z,97614.49
2018-05-25T10:02:00.563Z,97607.81
2018-05-25T10:04:31.601Z,97607.89
2018-05-25T10:07:02.599Z,97598.50
2018-05-25T10:09:33.667Z,97597.36
2018-05-25T10:12:04.670Z,97594.30
2018-05-25T10:14:35.680Z,97590.86
2018-05-25T10:17:06.737Z,97593.48
2018-05-25T10:19:37.766Z,97587.35
2018-05-25T10:22:08.806Z,97580.66
2018-05-25T10:24:40.750Z,97581.88
2018-05-25T10:27:11.721Z,97580.84
2018-05-25T10:29:42.762Z,97582.14
2018-05-25T10:32:13.771Z,97580.64
2018-05-25T10:34:44.822Z,97587.48
2018-05-25T10:37:15.806Z,97582.84
2018-05-25T10:39:46.852Z,97587.58
2018-05-25T10:42:17.830Z,97586.64
2018-05-25T10:44:48.874Z,97584.30
2018-05-25T10:47:19.901Z,97579.30
2018-05-25T10:49:50.958Z,97574.93
2018-05-25T10:52:21.987Z,97574.80
2018-05-25T10:54:53.120Z,97574.21
2018-05-25T10:57:24.153Z,97574.16
2018-05-25T10:59:55.172Z,97578.26
2018-05-25T11:02:26.194Z,97576.66
2018-05-25T11:04:57.223Z,97580.29
2018-05-25T11:07:28.262Z,97584.12
2018-05-25T11:09:59.348Z,97588.31
2018-05-25T11:12:30.365Z,97586.03
2018-05-25T11:15:01.361Z,97582.70
2018-05-25T11:17:32.416Z,97583.57
2018-05-25T11:20:03.415Z,97587.50
2018-05-25T11:22:34.444Z,97589.45
2018-05-25T11:25:05.513Z,97592.83
2018-05-25T11:27:36.567Z,97588.62
2018-05-25T11:30:07.588Z,97587.59
2018-05-25T11:32:38.618Z,97585.19
2018-05-25T11:35:09.633Z,97585.37
2018-05-25T11:37:40.641Z,97585.97
2018-05-25T11:40:11.643Z,97583.45
2018-05-25T11:42:42.700Z,97582.05
2018-05-25T11:45:13.676Z,97581.94
2018-05-25T11:47:44.661Z,97583.52
2018-05-25T11:50:15.693Z,97578.05
2018-05-25T11:52:46.702Z,97572.59
2018-05-25T11:55:17.710Z,97571.59
2018-05-25T11:57:48.760Z,97574.52
2018-05-25T12:00:19.776Z,97578.17
2018-05-25T12:02:50.779Z,97573.69
2018-05-25T12:05:21.781Z,97570.03
2018-05-25T12:07:52.786Z,97568.66
2018-05-25T12:10:23.837Z,97567.30
2018-05-25T12:12:54.836Z,97568.84
2018-05-25T12:15:25.860Z,97565.73
2018-05-25T12:17:56.860Z,97571.56
2018-05-25T12:20:27.878Z,97562.22
2018-05-25T12:22:58.878Z,97562.78
2018-05-25T12:25:29.903Z,97568.26
2018-05-25T12:28:00.941Z,97558.72
2018-05-25T12:30:31.972Z,97555.37
2018-05-25T12:33:03.013Z,97557.21
2018-05-25T12:35:34.055Z,97554.92
2018-05-25T12:38:05.071Z,97557.19
2018-05-25T12:40:36.092Z,97556.97
2018-05-25T12:43:07.101Z,97563.01
2018-05-25T12:45:38.073Z,97555.88
2018-05-25T12:48:09.068Z,97557.02
2018-05-25T12:50:40.139Z,97563.83
2018-05-25T12:53:11.107Z,97561.70
2018-05-25T12:55:42.131Z,97567.51
2018-05-25T12:58:13.084Z,97567.50
2018-05-25T13:00:44.112Z,97565.19
2018-05-25T13:03:15.143Z,97560.14
2018-05-25T13:05:46.153Z,97562.22
2018-05-25T13:08:17.164Z,97565.88
2018-05-25T13:10:48.166Z,97563.37
2018-05-25T13:13:19.178Z,97559.48
2018-05-25T13:15:50.184Z,97556.61
2018-05-25T13:18:21.190Z,97553.11
2018-05-25T13:20:52.169Z,97549.87
2018-05-25T13:23:23.196Z,97546.78
2018-05-25T13:25:54.217Z,97547.66
2018-05-25T13:28:25.229Z,97551.91
2018-05-25T13:30:56.211Z,97567.45
2018-05-25T13:33:27.223Z,97576.96
2018-05-25T13:35:58.237Z,97583.98
2018-05-25T13:38:29.264Z,97610.09
2018-05-25T13:41:00.289Z,97628.63
2018-05-25T13:43:31.287Z,97644.84
2018-05-25T13:46:02.553Z,97655.94
2018-05-25T13:48:33.566Z,97664.36
2018-05-25T13:51:04.606Z,97677.81
2018-05-25T13:53:35.611Z,97685.67
2018-05-25T13:56:06.643Z,97691.81
2018-05-25T13:58:37.674Z,97695.74
2018-05-25T14:01:08.682Z,97698.80
2018-05-25T14:03:39.707Z,97696.47
2018-05-25T14:06:10.728Z,97695.80
2018-05-25T14:08:41.756Z,97697.10
2018-05-25T14:11:12.747Z,97706.14
2018-05-25T14:13:43.722Z,97711.19
2018-05-25T14:16:14.771Z,97710.42
2018-05-25T14:18:45.711Z,97700.86
2018-05-25T14:21:16.734Z,97696.58
2018-05-25T14:23:47.712Z,97688.45
2018-05-25T14:26:18.789Z,97693.39
2018-05-25T14:28:49.798Z,97697.75
2018-05-25T14:31:20.835Z,97689.02
2018-05-25T14:33:51.853Z,97687.71
2018-05-25T14:36:22.868Z,97682.95
2018-05-25T14:38:53.822Z,97678.30
2018-05-25T14:41:24.958Z,97677.71
2018-05-25T14:43:55.904Z,97670.81
2018-05-25T14:46:26.911Z,97673.12
2018-05-25T14:48:57.928Z,97679.49
2018-05-25T14:51:28.892Z,97678.53
2018-05-25T14:54:00.800Z,97673.80
2018-05-25T14:56:31.825Z,97684.91
2018-05-25T14:59:02.893Z,97687.16
2018-05-25T15:01:33.832Z,97686.98
2018-05-25T15:04:05.086Z,97691.58
2018-05-25T15:06:36.157Z,97699.83
2018-05-25T15:09:07.180Z,97701.45
2018-05-25T15:11:38.226Z,97703.25
2018-05-25T15:14:09.210Z,97706.36
2018-05-25T15:16:40.206Z,97699.80
2018-05-25T15:19:11.222Z,97706.71
2018-05-25T15:21:42.270Z,97702.98
2018-05-25T15:24:13.291Z,97696.15
2018-05-25T15:26:44.350Z,97697.98
2018-05-25T15:29:15.346Z,97706.45
2018-05-25T15:31:46.410Z,97694.67
2018-05-25T15:34:17.367Z,97694.08
2018-05-25T15:36:48.357Z,97692.83
2018-05-25T15:39:19.360Z,97692.48
2018-05-25T15:41:50.401Z,97691.52
2018-05-25T15:44:21.401Z,97684.77
2018-05-25T15:46:52.433Z,97675.94
2018-05-25T15:49:23.432Z,97677.75
2018-05-25T15:51:54.476Z,97670.31
2018-05-25T15:54:25.460Z,97670.65
2018-05-25T15:56:56.486Z,97666.59
2018-05-25T15:59:27.477Z,97658.83
2018-05-25T16:01:58.474Z,97655.58
2018-05-25T16:04:29.512Z,97649.45
2018-05-25T16:07:00.556Z,97647.81
2018-05-25T16:09:31.547Z,97644.53
2018-05-25T16:12:02.599Z,97645.27
2018-05-25T16:14:33.602Z,97648.30
2018-05-25T16:17:04.612Z,97655.70
2018-05-25T16:19:35.597Z,97653.13
2018-05-25T16:22:06.609Z,97652.50
2018-05-25T16:24:37.605Z,97646.13
2018-05-25T16:27:08.647Z,97647.75
2018-05-25T16:29:39.669Z,97649.44
2018-05-25T16:32:10.687Z,97650.05
2018-05-25T16:34:41.734Z,97646.00
2018-05-25T16:37:12.836Z,97650.81
2018-05-25T16:39:43.883Z,97654.63
2018-05-25T16:42:14.900Z,97649.94
2018-05-25T16:44:45.940Z,97654.30
2018-05-25T16:47:16.989Z,97659.44
2018-05-25T16:49:48.002Z,97660.35
2018-05-25T16:52:19.042Z,97654.95
2018-05-25T16:54:50.008Z,97659.00
2018-05-25T16:57:21.019Z,97658.63
2018-05-25T16:59:52.023Z,97663.75
2018-05-25T17:02:23.014Z,97664.02
2018-05-25T17:04:53.991Z,97666.73
2018-05-25T17:07:25.038Z,97676.31
2018-05-25T17:09:56.027Z,97673.71
2018-05-25T17:12:27.079Z,97683.11
2018-05-25T17:14:58.099Z,97676.87
2018-05-25T17:17:29.136Z,97682.86
2018-05-25T17:20:00.133Z,97681.02
2018-05-25T17:22:38.366Z,97676.69
2018-05-25T17:25:09.356Z,97681.20
2018-05-25T17:27:40.367Z,97688.66
2018-05-25T17:30:11.389Z,97686.68
2018-05-25T17:32:42.452Z,97677.88
2018-05-25T17:35:13.431Z,97683.67
2018-05-25T17:37:44.460Z,97690.17
2018-05-25T17:40:15.494Z,97695.17
2018-05-25T17:42:46.533Z,97697.28
2018-05-25T17:45:17.534Z,97700.19
2018-05-25T17:47:48.541Z,97709.16
2018-05-25T17:50:19.528Z,97706.52
2018-05-25T17:52:50.568Z,97709.05
2018-05-25T17:55:21.581Z,97712.47
2018-05-25T17:57:52.657Z,97712.68
2018-05-25T18:00:23.933Z,97708.77
2018-05-25T18:02:54.969Z,97712.68
2018-05-25T18:05:25.943Z,97715.67
2018-05-25T18:07:56.938Z,97716.94
2018-05-25T18:10:27.955Z,97721.02
2018-05-25T18:12:59.025Z,97724.93
2018-05-25T18:15:30.025Z,97727.90
2018-05-25T18:18:01.091Z,97720.59
2018-05-25T18:20:32.134Z,97720.95
2018-05-25T18:23:03.127Z,97712.38
2018-05-25T18:25:34.200Z,97709.11
2018-05-25T18:28:05.198Z,97718.70
2018-05-25T18:30:36.207Z,97718.05
2018-05-25T18:33:07.191Z,97725.83
2018-05-25T18:35:38.231Z,97729.02
2018-05-25T18:38:09.545Z,97723.13
2018-05-25T18:40:41.301Z,97725.36
2018-05-25T18:43:12.564Z,97729.64
2018-05-25T18:45:44.012Z,97737.11
2018-05-25T18:48:15.107Z,97735.39
2018-05-25T18:50:46.860Z,97736.47
2018-05-25T18:53:18.646Z,97734.88
2018-05-25T18:55:50.285Z,97733.88
2018-05-25T18:58:23.011Z,97746.55
2018-05-25T19:00:55.348Z,97742.38
2018-05-25T19:03:27.154Z,97748.01
2018-05-25T19:05:59.207Z,97752.97
2018-05-25T19:08:30.480Z,97756.70
2018-05-25T19:11:01.520Z,97756.62
2018-05-25T19:13:32.579Z,97754.63
2018-05-25T19:16:03.618Z,97759.23
2018-05-25T19:18:34.684Z,97755.00
2018-05-25T19:21:05.690Z,97766.13
2018-05-25T19:23:36.686Z,97768.65
2018-05-25T19:26:07.657Z,97778.42
2018-05-25T19:28:38.672Z,97783.76
2018-05-25T19:31:09.709Z,97794.95
2018-05-25T19:33:40.873Z,97800.58
2018-05-25T19:36:11.929Z,97803.00
2018-05-25T19:38:42.975Z,97803.94
2018-05-25T19:41:13.990Z,97804.31
2018-05-25T19:43:44.960Z,97805.64
2018-05-25T19:46:16.020Z,97805.41
2018-05-25T19:48:47.029Z,97806.97
2018-05-25T19:51:18.050Z,97806.55
2018-05-25T19:53:49.116Z,97812.73
2018-05-25T19:56:20.162Z,97809.62
2018-05-25T19:58:51.168Z,97807.39
2018-05-25T20:01:22.174Z,97810.24
2018-05-25T20:03:53.246Z,97810.79
2018-05-25T20:06:24.400Z,97810.20
2018-05-25T20:08:55.462Z,97815.25
2018-05-25T20:11:26.740Z,97820.20
2018-05-25T20:13:57.745Z,97817.47
2018-05-25T20:16:28.791Z,97821.66
2018-05-25T20:18:59.798Z,97820.36
2018-05-25T20:21:30.848Z,97817.19
2018-05-25T20:24:01.884Z,97823.00
2018-05-25T20:26:32.888Z,97818.53
2018-05-25T20:29:03.973Z,97817.81
2018-05-25T20:31:35.019Z,97828.69
2018-05-25T20:34:06.042Z,97832.12
2018-05-25T20:36:37.041Z,97836.86
2018-05-25T20:39:08.098Z,97836.03
2018-05-25T20:41:39.135Z,97840.87
2018-05-25T20:44:10.187Z,97833.61
2018-05-25T20:46:41.238Z,97834.59
2018-05-25T20:49:12.236Z,97839.64
2018-05-25T20:51:43.273Z,97829.34
2018-05-25T20:54:14.755Z,97832.12
2018-05-25T20:56:45.825Z,97829.84
2018-05-25T20:59:16.906Z,97833.16
2018-05-25T21:01:47.896Z,97833.26
2018-05-25T21:04:18.895Z,97833.47
2018-05-25T21:06:49.892Z,97839.27
2018-05-25T21:09:20.952Z,97839.37
2018-05-25T21:11:51.958Z,97836.28
2018-05-25T21:14:22.970Z,97836.52
2018-05-25T21:16:53.994Z,97834.59
2018-05-25T21:19:25.074Z,97836.76
2018-05-25T21:21:56.090Z,97841.95
2018-05-25T21:24:27.110Z,97841.05
2018-05-25T21:26:58.671Z,97837.56
2018-05-25T21:29:29.679Z,97840.43
2018-05-25T21:32:00.748Z,97839.23
2018-05-25T21:34:31.780Z,97838.19
2018-05-25T21:37:02.836Z,97833.68
2018-05-25T21:39:33.873Z,97839.73
2018-05-25T21:42:04.882Z,97838.98
2018-05-25T21:44:35.910Z,97836.27
2018-05-25T21:47:06.932Z,97838.08
2018-05-25T21:49:37.956Z,97837.52
2018-05-25T21:52:08.940Z,97840.46
2018-05-25T21:54:39.969Z,97837.31
2018-05-25T21:57:10.984Z,97838.81
2018-05-25T21:59:42.000Z,97837.00
2018-05-25T22:02:13.084Z,97844.63
2018-05-25T22:04:44.116Z,97842.38
2018-05-25T22:07:15.155Z,97848.56
2018-05-25T22:09:46.143Z,97854.48
2018-05-25T22:12:17.172Z,97851.09
2018-05-25T22:14:48.204Z,97860.63
2018-05-25T22:17:19.216Z,97860.44
2018-05-25T22:19:50.233Z,97857.05
2018-05-25T22:22:21.230Z,97857.61
2018-05-25T22:24:52.258Z,97860.56
2018-05-25T22:27:23.292Z,97863.69
2018-05-25T22:29:54.323Z,97861.75
2018-05-25T22:32:25.353Z,97862.57
2018-05-25T22:34:56.341Z,97860.56
2018-05-25T22:37:27.330Z,97858.13
2018-05-25T22:39:58.460Z,97862.25
2018-05-25T22:42:41.755Z,97859.14
2018-05-25T22:45:24.977Z,97862.55
2018-05-25T22:48:08.226Z,97853.95
2018-05-25T22:50:51.420Z,97850.70
2018-05-25T22:53:28.342Z,97849.55
2018-05-25T22:55:59.400Z,97846.77
2018-05-25T22:58:30.403Z,97840.16
2018-05-25T23:01:01.448Z,97842.56
2018-05-25T23:03:32.461Z,97842.04
2018-05-25T23:06:03.510Z,97851.23
2018-05-25T23:08:34.533Z,97849.83
2018-05-25T23:11:05.552Z,97854.49
2018-05-25T23:13:36.529Z,97857.80
2018-05-25T23:16:07.493Z,97858.35
2018-05-25T23:18:38.591Z,97859.95
2018-05-25T23:21:09.537Z,97856.61
2018-05-25T23:23:40.559Z,97853.17
2018-05-25T23:26:11.555Z,97849.63
2018-05-25T23:28:42.644Z,97851.81
2018-05-25T23:31:13.656Z,97845.95
2018-05-25T23:33:44.675Z,97846.11
2018-05-25T23:36:15.660Z,97840.04
2018-05-25T23:38:46.669Z,97837.57
2018-05-25T23:41:17.613Z,97839.35
2018-05-25T23:43:48.676Z,97842.77
2018-05-25T23:46:19.697Z,97846.36
2018-05-25T23:48:50.671Z,97842.91
2018-05-25T23:51:21.693Z,97845.69
2018-05-25T23:53:52.682Z,97845.02
2018-05-25T23:56:23.682Z,97848.34
2018-05-25T23:58:54.638Z,97844.09
